Time;durP1;ratioP1;P1;durP2;ratioP2;P2;SDS_P1;SDS_P2;PMS_P1;PMS_P2;Temp;Humidity;BMP_temperature;BMP_pressure;BME280_temperature;BME280_humidity;BME280_pressure;Samples;Min_cycle;Max_cycle;Signal;HPM_P1;HPM_P2
2021/03/16 00:00:40;;;;;;;9.27;6.20;;;154.40;1792.00;;;;;;5056327;28;20378;-54
2021/03/16 00:03:06;;;;;;;9.13;6.20;;;154.40;1843.20;;;;;;5056254;28;20045;-56
2021/03/16 00:05:32;;;;;;;12.45;6.45;;;154.40;1817.60;;;;;;5056141;28;20107;-52
2021/03/16 00:07:57;;;;;;;9.55;5.43;;;154.40;1792.00;;;;;;5056377;28;20032;-51
2021/03/16 00:10:23;;;;;;;10.45;5.18;;;154.30;1817.60;;;;;;5056397;28;20028;-52
2021/03/16 00:12:49;;;;;;;8.38;4.90;;;154.40;1817.60;;;;;;5056438;28;20459;-52
2021/03/16 00:15:15;;;;;;;10.70;5.93;;;154.40;1792.00;;;;;;5056339;28;20033;-52
2021/03/16 00:17:42;;;;;;;10.15;6.35;;;154.30;1817.60;;;;;;5056121;28;20359;-52
2021/03/16 00:20:08;;;;;;;11.77;7.72;;;154.40;1817.60;;;;;;5056300;28;20063;-52
2021/03/16 00:22:34;;;;;;;9.75;5.15;;;154.40;1792.00;;;;;;5055742;28;20068;-52
2021/03/16 00:24:59;;;;;;;11.55;5.47;;;154.40;1843.20;;;;;;5055988;28;20435;-53
2021/03/16 00:27:25;;;;;;;9.25;6.20;;;154.30;1817.60;;;;;;5053343;28;20430;-52
2021/03/16 00:29:51;;;;;;;6.68;4.97;;;154.30;1843.20;;;;;;5052787;28;20108;-52
2021/03/16 00:32:16;;;;;;;8.63;5.35;;;154.20;1817.60;;;;;;5052651;28;20391;-52
2021/03/16 00:34:42;;;;;;;10.70;5.40;;;154.20;1817.60;;;;;;5052722;28;20033;-52
2021/03/16 00:37:08;;;;;;;11.02;6.13;;;154.40;1792.00;;;;;;5052872;28;20025;-52
2021/03/16 00:39:34;;;;;;;8.38;6.18;;;154.30;1817.60;;;;;;5052687;28;20025;-52
2021/03/16 00:41:59;;;;;;;10.32;5.55;;;154.30;1843.20;;;;;;5052448;28;20040;-52
2021/03/16 00:44:25;;;;;;;11.95;7.75;;;154.30;1817.60;;;;;;5052590;28;20032;-54
2021/03/16 00:46:51;;;;;;;11.15;8.45;;;154.30;1817.60;;;;;;5052331;28;20074;-52
2021/03/16 00:49:17;;;;;;;9.80;6.15;;;154.20;1792.00;;;;;;5052646;28;20028;-53
2021/03/16 00:51:42;;;;;;;9.70;6.97;;;154.30;1817.60;;;;;;5052221;28;20035;-53
2021/03/16 00:54:08;;;;;;;12.15;6.15;;;154.20;1817.60;;;;;;5052726;28;20021;-52
2021/03/16 00:56:34;;;;;;;8.70;5.82;;;154.30;1792.00;;;;;;5052409;28;20497;-52
2021/03/16 00:59:00;;;;;;;9.15;5.20;;;154.20;1792.00;;;;;;5052328;28;20021;-53
2021/03/16 01:01:26;;;;;;;9.90;5.63;;;154.30;1817.60;;;;;;5052375;28;20369;-52
2021/03/16 01:03:51;;;;;;;7.03;5.25;;;154.20;1792.00;;;;;;5052092;28;20036;-52
2021/03/16 01:06:17;;;;;;;10.40;5.50;;;154.30;1817.60;;;;;;5052002;28;20360;-52
2021/03/16 01:08:43;;;;;;;8.85;5.72;;;154.20;1843.20;;;;;;5051851;28;20021;-52
2021/03/16 01:11:09;;;;;;;8.20;5.78;;;154.10;1843.20;;;;;;5051915;28;20013;-53
2021/03/16 01:13:34;;;;;;;12.10;6.85;;;154.10;1817.60;;;;;;5052326;28;20039;-52
2021/03/16 01:16:00;;;;;;;8.82;5.78;;;154.10;1817.60;;;;;;5051924;28;20017;-52
2021/03/16 01:18:26;;;;;;;7.00;5.03;;;154.20;1792.00;;;;;;5052241;28;20442;-52
2021/03/16 01:20:52;;;;;;;7.75;5.50;;;154.10;1843.20;;;;;;5052013;28;20051;-52
2021/03/16 01:23:18;;;;;;;8.95;5.45;;;154.00;1843.20;;;;;;5051892;28;20474;-52
2021/03/16 01:25:43;;;;;;;8.70;5.55;;;154.10;1817.60;;;;;;5051739;28;20021;-53
2021/03/16 01:28:09;;;;;;;10.48;5.50;;;154.00;1817.60;;;;;;5051979;28;20029;-52
2021/03/16 01:30:35;;;;;;;8.20;5.78;;;154.10;1843.20;;;;;;5051761;28;20475;-52
2021/03/16 01:33:00;;;;;;;9.35;5.10;;;154.10;1817.60;;;;;;5051423;28;20136;-52
2021/03/16 01:35:26;;;;;;;24.55;16.65;;;154.10;1792.00;;;;;;5051770;28;20114;-52
2021/03/16 01:37:56;;;;;;;10.93;6.07;;;154.10;1817.60;;;;;;5051315;28;20379;-52
2021/03/16 01:40:34;;;;;;;11.93;8.68;;;154.20;1817.60;;;;;;5051561;28;20076;-52
2021/03/16 01:43:10;;;;;;;9.35;5.15;;;154.10;1792.00;;;;;;5051354;28;20063;-56
2021/03/16 01:45:36;;;;;;;10.77;5.88;;;154.10;1792.00;;;;;;5051706;28;20086;-52
2021/03/16 01:48:04;;;;;;;7.40;5.07;;;154.10;1792.00;;;;;;5051397;28;20923;-52
2021/03/16 01:50:30;;;;;;;9.27;5.40;;;154.00;1817.60;;;;;;5051280;28;20108;-53
2021/03/16 01:52:57;;;;;;;11.95;6.82;;;154.00;1817.60;;;;;;5051776;28;20170;-52
2021/03/16 01:55:24;;;;;;;10.50;6.07;;;154.00;1817.60;;;;;;5051326;28;20029;-52
2021/03/16 01:57:52;;;;;;;8.05;5.47;;;154.00;1817.60;;;;;;5051067;28;20110;-53
2021/03/16 02:00:19;;;;;;;7.57;6.07;;;154.00;1817.60;;;;;;5051395;28;20112;-52
2021/03/16 02:02:45;;;;;;;12.25;5.93;;;154.00;1817.60;;;;;;5051218;28;20048;-52
2021/03/16 02:05:12;;;;;;;9.38;6.00;;;154.00;1792.00;;;;;;5051111;28;20032;-52
2021/03/16 02:07:53;;;;;;;7.50;4.95;;;154.00;1817.60;;;;;;5051668;28;20033;-53
2021/03/16 02:10:32;;;;;;;11.13;5.50;;;154.10;1792.00;;;;;;5051261;28;20526;-52
2021/03/16 02:13:01;;;;;;;7.68;5.15;;;154.10;1792.00;;;;;;5051250;28;20025;-51
2021/03/16 02:15:39;;;;;;;7.90;5.43;;;154.10;1792.00;;;;;;5051367;28;20040;-52
2021/03/16 02:18:13;;;;;;;14.02;5.82;;;154.20;1792.00;;;;;;5051163;28;20029;-52
2021/03/16 02:20:47;;;;;;;;;;;154.00;1792.00;;;;;;5051402;28;20548;-52
2021/03/16 02:23:18;;;;;;;6.95;4.45;;;153.90;1817.60;;;;;;5050537;28;19962;-52
2021/03/16 02:26:16;;;;;;;8.60;4.80;;;154.00;1792.00;;;;;;5050812;28;20025;-52
2021/03/16 02:29:11;;;;;;;5.80;3.95;;;153.80;1817.60;;;;;;5050606;28;20020;-53
2021/03/16 02:31:42;;;;;;;9.13;5.00;;;153.80;1817.60;;;;;;5050530;28;20411;-53
2021/03/16 02:34:08;;;;;;;12.07;5.53;;;153.70;1817.60;;;;;;5050578;28;20049;-52
2021/03/16 02:36:36;;;;;;;10.63;7.53;;;153.80;1817.60;;;;;;5050552;28;20017;-53
2021/03/16 02:39:05;;;;;;;7.97;4.60;;;153.80;1792.00;;;;;;5050481;28;20142;-52
2021/03/16 02:41:31;;;;;;;8.38;5.07;;;153.80;1817.60;;;;;;5050118;28;20033;-52
2021/03/16 02:43:58;;;;;;;6.68;5.13;;;153.70;1817.60;;;;;;5050564;28;20028;-52
2021/03/16 02:46:24;;;;;;;6.82;4.45;;;153.80;1792.00;;;;;;5050222;28;20049;-52
2021/03/16 02:48:53;;;;;;;7.70;4.68;;;153.70;1792.00;;;;;;5050050;28;20364;-51
2021/03/16 02:51:18;;;;;;;6.85;4.68;;;153.80;1817.60;;;;;;5049544;28;20471;-52
2021/03/16 02:53:45;;;;;;;8.27;4.88;;;153.70;1817.60;;;;;;5050260;28;20036;-52
2021/03/16 02:56:12;;;;;;;9.35;5.55;;;153.70;1817.60;;;;;;5050325;28;20029;-52
2021/03/16 02:58:39;;;;;;;8.13;5.25;;;153.60;1817.60;;;;;;5050525;28;20111;-52
2021/03/16 03:01:07;;;;;;;8.88;5.95;;;128.90;1817.60;;;;;;5050141;28;20037;-52
2021/03/16 03:03:36;;;;;;;8.18;5.85;;;128.90;1817.60;;;;;;5050088;28;20036;-51
2021/03/16 03:06:03;;;;;;;8.73;5.25;;;153.60;1817.60;;;;;;5050059;28;20471;-52
2021/03/16 03:08:31;;;;;;;7.47;5.32;;;153.60;1817.60;;;;;;5050043;28;20067;-52
2021/03/16 03:10:57;;;;;;;7.78;5.03;;;153.60;1817.60;;;;;;5050161;28;20432;-52
2021/03/16 03:13:23;;;;;;;9.45;5.05;;;128.80;1843.20;;;;;;5050053;28;20071;-52
2021/03/16 03:15:48;;;;;;;8.18;5.13;;;128.80;1843.20;;;;;;5050067;28;20414;-52
2021/03/16 03:18:14;;;;;;;10.30;5.38;;;128.80;1843.20;;;;;;5049862;28;20071;-52
2021/03/16 03:20:40;;;;;;;7.13;5.53;;;128.90;1817.60;;;;;;5049960;28;20033;-53
2021/03/16 03:23:16;;;;;;;13.13;5.90;;;128.80;1817.60;;;;;;5050095;28;20056;-54
2021/03/16 03:25:48;;;;;;;9.90;5.03;;;128.80;1817.60;;;;;;5050114;28;20028;-52
2021/03/16 03:28:19;;;;;;;8.18;4.22;;;128.80;1843.20;;;;;;5049897;28;20078;-55
2021/03/16 03:30:46;;;;;;;7.15;4.28;;;128.80;1817.60;;;;;;5049782;28;20021;-52
2021/03/16 03:33:13;;;;;;;12.20;6.95;;;128.70;1817.60;;;;;;5049479;28;20052;-52
2021/03/16 03:35:39;;;;;;;10.23;5.07;;;128.70;1843.20;;;;;;5049980;28;20036;-52
2021/03/16 03:38:08;;;;;;;6.80;4.82;;;128.70;1843.20;;;;;;5049908;28;20028;-52
2021/03/16 03:40:34;;;;;;;14.27;8.63;;;128.70;1843.20;;;;;;5049581;28;20064;-52
2021/03/16 03:43:02;;;;;;;8.90;5.45;;;128.80;1817.60;;;;;;5049650;28;20041;-52
2021/03/16 03:45:29;;;;;;;10.10;4.93;;;128.70;1843.20;;;;;;5049775;28;20033;-52
2021/03/16 03:47:58;;;;;;;8.40;5.40;;;128.70;1817.60;;;;;;5049795;28;20036;-52
2021/03/16 03:50:25;;;;;;;9.00;4.97;;;128.70;1817.60;;;;;;5049484;28;20021;-53
2021/03/16 03:52:53;;;;;;;7.40;5.22;;;128.60;1843.20;;;;;;5049542;28;20364;-53
2021/03/16 03:55:20;;;;;;;8.32;5.78;;;128.70;1817.60;;;;;;5049679;28;20487;-52
2021/03/16 03:57:48;;;;;;;10.27;5.70;;;128.70;1843.20;;;;;;5049812;28;20033;-52
2021/03/16 04:00:15;;;;;;;10.52;6.03;;;128.60;1868.80;;;;;;5049412;28;20387;-52
2021/03/16 04:02:41;;;;;;;10.05;5.60;;;128.60;1817.60;;;;;;5050597;28;20376;-52
2021/03/16 04:05:10;;;;;;;8.45;5.53;;;128.50;1843.20;;;;;;5053429;28;20094;-55
2021/03/16 04:07:37;;;;;;;7.13;4.68;;;128.60;1843.20;;;;;;5053453;28;20028;-55
2021/03/16 04:10:05;;;;;;;8.05;4.82;;;128.50;1843.20;;;;;;5053104;28;20064;-55
2021/03/16 04:12:32;;;;;;;8.77;5.05;;;128.60;1843.20;;;;;;5052994;28;20029;-55
2021/03/16 04:14:58;;;;;;;7.65;5.30;;;128.60;1843.20;;;;;;5053123;28;20547;-55
2021/03/16 04:17:24;;;;;;;12.00;5.93;;;128.60;1843.20;;;;;;5052973;28;20422;-56
2021/03/16 04:19:56;;;;;;;12.95;6.00;;;128.60;1868.80;;;;;;5052978;28;20033;-52
2021/03/16 04:22:22;;;;;;;8.07;5.10;;;128.60;1868.80;;;;;;5052779;28;20413;-53
2021/03/16 04:24:54;;;;;;;10.57;5.28;;;128.60;1843.20;;;;;;5053162;28;20020;-52
2021/03/16 04:27:19;;;;;;;8.63;4.97;;;128.60;1868.80;;;;;;5052766;28;20016;-52
2021/03/16 04:29:45;;;;;;;10.77;5.03;;;128.60;1843.20;;;;;;5053009;28;20017;-52
2021/03/16 04:32:11;;;;;;;9.77;6.15;;;128.60;1843.20;;;;;;5052428;28;20031;-52
2021/03/16 04:34:36;;;;;;;11.68;8.00;;;128.60;1843.20;;;;;;5052769;28;20045;-52
2021/03/16 04:37:02;;;;;;;8.60;6.20;;;128.50;1868.80;;;;;;5052554;28;20033;-52
2021/03/16 04:39:28;;;;;;;8.15;6.30;;;128.40;1894.40;;;;;;5052684;28;20036;-52
2021/03/16 04:41:53;;;;;;;10.18;5.90;;;128.40;1894.40;;;;;;5052420;28;20037;-52
2021/03/16 04:44:19;;;;;;;8.60;5.88;;;128.40;1868.80;;;;;;5052648;28;20463;-52
2021/03/16 04:46:45;;;;;;;8.38;5.15;;;128.40;1843.20;;;;;;5052488;28;20029;-52
2021/03/16 04:49:11;;;;;;;8.25;5.43;;;128.30;1894.40;;;;;;5052427;28;20029;-52
2021/03/16 04:51:36;;;;;;;8.07;5.10;;;128.40;1894.40;;;;;;5052454;28;20417;-51
2021/03/16 04:54:02;;;;;;;9.20;6.65;;;128.40;1894.40;;;;;;5052343;28;20405;-52
2021/03/16 04:56:28;;;;;;;11.75;5.68;;;128.40;1894.40;;;;;;5052610;28;20033;-52
2021/03/16 04:58:53;;;;;;;8.43;5.38;;;128.30;1894.40;;;;;;5052255;28;20033;-52
2021/03/16 05:01:19;;;;;;;7.22;4.85;;;128.30;1920.00;;;;;;5052092;28;20103;-52
2021/03/16 05:03:45;;;;;;;12.60;5.72;;;128.40;1894.40;;;;;;5052276;28;20032;-52
2021/03/16 05:06:10;;;;;;;9.02;6.00;;;128.40;1920.00;;;;;;5052234;28;20100;-52
2021/03/16 05:08:36;;;;;;;9.05;6.18;;;128.40;1920.00;;;;;;5052450;28;20051;-52
2021/03/16 05:11:02;;;;;;;9.73;5.63;;;128.40;1920.00;;;;;;5052269;28;20033;-52
2021/03/16 05:13:27;;;;;;;10.20;5.35;;;128.40;1945.60;;;;;;5051634;28;20121;-52
2021/03/16 05:15:53;;;;;;;10.43;6.28;;;128.40;1920.00;;;;;;5051969;28;20024;-52
2021/03/16 05:18:19;;;;;;;9.75;6.43;;;128.20;1945.60;;;;;;5052038;28;20486;-51
2021/03/16 05:20:45;;;;;;;12.95;6.97;;;128.30;1945.60;;;;;;5051959;28;20107;-52
2021/03/16 05:23:11;;;;;;;12.77;9.50;;;128.20;1971.20;;;;;;5051932;28;20409;-52
2021/03/16 05:25:36;;;;;;;18.58;12.05;;;128.20;1971.20;;;;;;5051879;28;20032;-52
2021/03/16 05:28:02;;;;;;;11.18;7.32;;;128.30;1996.80;;;;;;5051842;28;20155;-52
2021/03/16 05:30:28;;;;;;;9.70;6.47;;;128.30;1971.20;;;;;;5051848;28;20040;-52
2021/03/16 05:32:58;;;;;;;11.15;6.93;;;128.40;1971.20;;;;;;5051421;28;20064;-52
2021/03/16 05:35:24;;;;;;;9.20;6.32;;;128.50;1971.20;;;;;;5051494;28;20044;-54
2021/03/16 05:37:51;;;;;;;12.90;7.22;;;128.40;1971.20;;;;;;5051414;28;20108;-52
2021/03/16 05:40:16;;;;;;;11.75;8.35;;;128.50;1971.20;;;;;;5051883;28;20044;-52
2021/03/16 05:42:42;;;;;;;11.02;6.53;;;128.40;1996.80;;;;;;5051286;28;20037;-52
2021/03/16 05:45:09;;;;;;;11.93;6.43;;;128.50;1996.80;;;;;;5051589;28;20031;-51
2021/03/16 05:47:37;;;;;;;11.02;5.88;;;128.50;1996.80;;;;;;5051551;28;20091;-52
2021/03/16 05:50:04;;;;;;;11.20;6.57;;;128.60;1996.80;;;;;;5051171;28;20021;-52
2021/03/16 05:52:31;;;;;;;8.65;5.93;;;128.50;1996.80;;;;;;5051103;28;20021;-53
2021/03/16 05:54:58;;;;;;;10.18;5.60;;;128.50;1996.80;;;;;;5051478;28;20088;-52
2021/03/16 05:57:23;;;;;;;9.43;5.93;;;128.50;2022.40;;;;;;5051254;28;20075;-52
2021/03/16 05:59:49;;;;;;;11.32;6.90;;;128.50;2022.40;;;;;;5051296;28;20029;-52
2021/03/16 06:02:16;;;;;;;9.77;5.80;;;128.60;2022.40;;;;;;5051141;28;20075;-52
2021/03/16 06:04:45;;;;;;;7.55;5.55;;;128.70;2022.40;;;;;;5051108;28;20025;-53
2021/03/16 06:07:17;;;;;;;12.18;6.15;;;128.70;2022.40;;;;;;5051091;28;20029;-53
2021/03/16 06:09:44;;;;;;;9.97;5.60;;;128.70;2022.40;;;;;;5051136;28;20468;-52
2021/03/16 06:12:11;;;;;;;9.82;5.90;;;128.70;2022.40;;;;;;5050996;28;20281;-53
2021/03/16 06:14:37;;;;;;;12.63;9.00;;;128.70;2022.40;;;;;;5051561;28;20029;-52
2021/03/16 06:17:04;;;;;;;11.82;7.30;;;128.70;2048.00;;;;;;5051841;28;20390;-52
2021/03/16 06:19:35;;;;;;;10.98;8.50;;;128.80;2048.00;;;;;;5051139;28;20064;-52
2021/03/16 06:22:04;;;;;;;14.43;10.80;;;128.90;2048.00;;;;;;5050815;28;20368;-52
2021/03/16 06:24:29;;;;;;;12.25;7.53;;;128.90;2048.00;;;;;;5050381;28;20087;-53
2021/03/16 06:26:55;;;;;;;10.93;6.22;;;128.90;2048.00;;;;;;5050409;28;20029;-55
2021/03/16 06:29:22;;;;;;;15.38;8.68;;;128.90;2048.00;;;;;;5050525;28;20029;-53
2021/03/16 06:31:48;;;;;;;10.82;6.82;;;128.90;2048.00;;;;;;5050441;28;20028;-55
2021/03/16 06:34:25;;;;;;;29.13;8.15;;;153.70;2048.00;;;;;;5050251;28;20057;-55
2021/03/16 06:36:59;;;;;;;10.88;6.97;;;153.70;2048.00;;;;;;5050658;28;20064;-52
2021/03/16 06:39:26;;;;;;;30.77;21.17;;;153.70;2048.00;;;;;;5050724;28;20040;-54
2021/03/16 06:41:53;;;;;;;12.65;8.43;;;153.80;2048.00;;;;;;5050538;28;20037;-54
2021/03/16 06:44:20;;;;;;;12.00;7.40;;;153.90;2048.00;;;;;;5050892;28;20075;-63
2021/03/16 06:46:57;;;;;;;13.52;7.40;;;154.10;1996.80;;;;;;5050447;28;20438;-52
2021/03/16 06:49:24;;;;;;;27.73;12.93;;;154.20;1996.80;;;;;;5050223;28;20025;-52
2021/03/16 06:51:51;;;;;;;21.23;11.98;;;154.10;1996.80;;;;;;5050244;28;20035;-53
2021/03/16 06:54:24;;;;;;;10.00;7.72;;;154.30;1996.80;;;;;;5050421;28;20033;-52
2021/03/16 06:56:50;;;;;;;14.80;10.20;;;154.20;2022.40;;;;;;5050190;28;20033;-53
2021/03/16 06:59:23;;;;;;;20.33;11.85;;;154.40;1971.20;;;;;;5050248;28;20025;-52
2021/03/16 07:01:50;;;;;;;28.77;20.60;;;154.40;1971.20;;;;;;5050024;28;20075;-56
2021/03/16 07:04:20;;;;;;;15.77;12.27;;;179.20;1996.80;;;;;;5050335;28;20033;-56
2021/03/16 07:06:47;;;;;;;16.92;9.82;;;179.40;1996.80;;;;;;5050197;28;20021;-57
2021/03/16 07:09:15;;;;;;;15.52;9.48;;;179.40;1945.60;;;;;;5050025;28;20414;-56
2021/03/16 07:11:47;;;;;;;25.83;17.20;;;179.50;1945.60;;;;;;5050044;28;20018;-57
2021/03/16 07:14:14;;;;;;;17.50;11.50;;;179.50;1945.60;;;;;;5050126;28;20115;-57
2021/03/16 07:16:44;;;;;;;11.63;8.18;;;179.80;1945.60;;;;;;5050085;28;20432;-57
2021/03/16 07:19:11;;;;;;;62.50;39.53;;;179.90;1920.00;;;;;;5049941;28;20104;-57
2021/03/16 07:21:47;;;;;;;32.78;20.17;;;179.90;1920.00;;;;;;5050013;28;20387;-55
2021/03/16 07:24:15;;;;;;;15.57;10.77;;;179.90;1894.40;;;;;;5049670;28;20017;-57
2021/03/16 07:26:41;;;;;;;16.35;8.70;;;180.00;1894.40;;;;;;5049820;28;20029;-57
2021/03/16 07:29:08;;;;;;;11.32;8.07;;;179.90;1894.40;;;;;;5049955;28;20029;-56
2021/03/16 07:31:35;;;;;;;23.20;15.25;;;180.10;1894.40;;;;;;5049755;28;20032;-57
2021/03/16 07:34:05;;;;;;;12.40;7.78;;;180.00;1894.40;;;;;;5049633;28;20045;-56
2021/03/16 07:36:36;;;;;;;12.93;9.68;;;180.10;1868.80;;;;;;5050893;28;20032;-55
2021/03/16 07:39:07;;;;;;;11.45;7.50;;;204.80;1868.80;;;;;;5053708;28;20460;-55
2021/03/16 07:41:36;;;;;;;13.13;8.63;;;205.00;1817.60;;;;;;5047231;28;20112;-59
2021/03/16 07:44:07;;;;;;;22.60;13.68;;;204.90;1817.60;;;;;;5053491;28;20024;-61
2021/03/16 07:46:53;;;;;;;20.17;10.45;;;205.10;1817.60;;;;;;5053351;28;20032;-56
2021/03/16 07:49:30;;;;;;;12.90;9.00;;;205.20;1817.60;;;;;;5053461;28;20020;-55
2021/03/16 07:51:56;;;;;;;10.68;7.60;;;205.50;1792.00;;;;;;5053920;28;20417;-56
2021/03/16 07:54:22;;;;;;;11.80;7.07;;;205.40;1766.40;;;;;;5053282;28;20024;-58
2021/03/16 07:56:58;;;;;;;9.15;7.00;;;205.40;1766.40;;;;;;5053636;28;20036;-55
2021/03/16 07:59:31;;;;;;;10.80;7.20;;;205.50;1766.40;;;;;;5053372;28;20025;-55
2021/03/16 08:01:57;;;;;;;;;;;205.50;1766.40;;;;;;5053102;28;20043;-58
2021/03/16 08:04:39;;;;;;;9.73;6.70;;;205.60;1766.40;;;;;;5053105;28;19909;-59
2021/03/16 08:07:06;;;;;;;12.93;8.18;;;205.60;1766.40;;;;;;5053006;28;20111;-57
2021/03/16 08:09:46;;;;;;;13.55;8.02;;;205.70;1740.80;;;;;;5052873;28;20104;-58
2021/03/16 08:12:19;;;;;;;13.50;7.82;;;205.50;1766.40;;;;;;5053241;28;20429;-57
2021/03/16 08:14:44;;;;;;;11.93;7.27;;;205.70;1715.20;;;;;;5053025;28;20112;-57
2021/03/16 08:17:10;;;;;;;13.50;10.00;;;230.40;1715.20;;;;;;5052982;28;20357;-58
2021/03/16 08:19:37;;;;;;;12.75;9.02;;;230.60;1715.20;;;;;;5053317;28;20048;-57
2021/03/16 08:22:03;;;;;;;8.23;5.70;;;230.70;1689.60;;;;;;5052766;28;20033;-57
2021/03/16 08:24:40;;;;;;;14.15;11.95;;;230.50;1715.20;;;;;;5053233;28;20108;-57
2021/03/16 08:27:12;;;;;;;9.07;7.60;;;230.50;1715.20;;;;;;5053052;28;20025;-57
2021/03/16 08:29:45;;;;;;;12.52;8.68;;;230.70;1715.20;;;;;;5052966;28;20075;-57
2021/03/16 08:32:16;;;;;;;14.80;10.90;;;230.90;1689.60;;;;;;5052725;28;20418;-56
2021/03/16 08:34:43;;;;;;;15.52;9.05;;;230.70;1715.20;;;;;;5052828;28;20511;-57
2021/03/16 08:37:27;;;;;;;11.82;8.77;;;230.80;1689.60;;;;;;5053136;28;20100;-57
2021/03/16 08:39:56;;;;;;;20.08;13.93;;;230.90;1638.40;;;;;;5052397;28;20412;-57
2021/03/16 08:42:24;;;;;;;12.63;9.18;;;230.90;1689.60;;;;;;5052339;28;21281;-57
2021/03/16 08:44:51;;;;;;;13.70;9.52;;;230.90;1664.00;;;;;;5052545;28;20017;-57
2021/03/16 08:47:20;;;;;;;15.02;10.30;;;230.90;1664.00;;;;;;5052372;28;20113;-57
2021/03/16 08:49:48;;;;;;;13.18;8.45;;;230.90;1664.00;;;;;;5051938;28;20028;-57
2021/03/16 08:52:22;;;;;;;13.63;8.57;;;230.90;1664.00;;;;;;5052279;28;20040;-57
2021/03/16 08:54:49;;;;;;;11.77;7.95;;;230.80;1664.00;;;;;;5052357;28;20025;-57
2021/03/16 08:57:22;;;;;;;11.73;8.57;;;230.90;1664.00;;;;;;5052528;28;20364;-55
2021/03/16 08:59:50;;;;;;;12.23;8.32;;;230.70;1664.00;;;;;;5052333;28;20112;-57
2021/03/16 09:02:28;;;;;;;11.93;9.30;;;231.00;1612.80;;;;;;5052414;28;20045;-57
2021/03/16 09:04:55;;;;;;;11.38;8.93;;;231.00;1638.40;;;;;;5052412;28;20032;-57
2021/03/16 09:07:26;;;;;;;11.75;8.25;;;231.20;1612.80;;;;;;5052063;28;20029;-57
2021/03/16 09:10:04;;;;;;;12.05;7.80;;;231.20;1587.20;;;;;;5051961;28;20032;-56
2021/03/16 09:12:31;;;;;;;19.70;12.23;;;256.00;1587.20;;;;;;5080599;28;20028;-54
2021/03/16 09:15:14;;;;;;;12.70;8.50;;;256.20;1587.20;;;;;;5092464;28;20109;-55
2021/03/16 09:17:42;;;;;;;15.32;12.07;;;256.30;1561.60;;;;;;5091840;28;20021;-57
2021/03/16 09:20:15;;;;;;;14.68;10.95;;;256.40;1536.00;;;;;;5092663;28;20040;-57
2021/03/16 09:22:46;;;;;;;11.70;7.93;;;256.70;1536.00;;;;;;5092435;28;20488;-57
2021/03/16 09:25:13;;;;;;;20.27;12.43;;;256.90;1484.80;;;;;;5092565;28;20390;-57
2021/03/16 09:27:41;;;;;;;14.07;9.07;;;256.90;1484.80;;;;;;5092464;28;20032;-57
2021/03/16 09:30:11;;;;;;;11.40;8.02;;;281.70;1484.80;;;;;;5092318;28;20044;-57
2021/03/16 09:32:41;;;;;;;14.35;10.15;;;281.90;1484.80;;;;;;5091858;28;20043;-57
2021/03/16 09:35:08;;;;;;;29.50;21.45;;;282.10;1459.20;;;;;;5092300;28;20028;-57
2021/03/16 09:37:46;;;;;;;18.10;13.20;;;282.10;1484.80;;;;;;5091893;28;20031;-57
2021/03/16 09:40:13;;;;;;;24.27;19.85;;;282.30;1459.20;;;;;;5092092;28;20489;-57
2021/03/16 09:42:40;;;;;;;30.80;17.35;;;282.30;1459.20;;;;;;5092051;28;20044;-57
2021/03/16 09:45:18;;;;;;;121.25;72.47;;;282.50;1433.60;;;;;;5091960;28;20020;-57
2021/03/16 09:47:45;;;;;;;48.92;30.52;;;282.20;1408.00;;;;;;5091572;28;20470;-57
2021/03/16 09:50:20;;;;;;;101.35;68.95;;;282.20;1408.00;;;;;;5091852;28;20421;-57
2021/03/16 09:52:57;;;;;;;82.88;53.35;;;282.30;1433.60;;;;;;5091670;28;20059;-57
2021/03/16 09:55:25;;;;;;;80.75;51.35;;;282.40;1408.00;;;;;;5091485;28;20454;-57
2021/03/16 09:57:51;;;;;;;63.40;17.83;;;282.30;1433.60;;;;;;5091329;28;20485;-58
2021/03/16 10:00:18;;;;;;;22.70;13.82;;;282.50;1408.00;;;;;;5091519;28;20020;-57
2021/03/16 10:02:44;;;;;;;113.97;73.65;;;307.30;1408.00;;;;;;5091342;28;20043;-57
2021/03/16 10:05:16;;;;;;;61.20;44.08;;;307.30;1408.00;;;;;;5091552;28;20093;-57
2021/03/16 10:07:42;;;;;;;31.27;23.83;;;307.20;1408.00;;;;;;5091332;28;20032;-57
2021/03/16 10:10:15;;;;;;;46.53;36.42;;;307.20;1433.60;;;;;;5091432;28;20055;-57
2021/03/16 10:12:56;;;;;;;44.88;30.77;;;282.40;1408.00;;;;;;5091587;28;20032;-58
2021/03/16 10:15:37;;;;;;;36.47;22.88;;;282.20;1408.00;;;;;;5091176;28;20028;-57
2021/03/16 10:18:07;;;;;;;19.92;15.05;;;282.00;1433.60;;;;;;5091038;28;20085;-57
2021/03/16 10:20:38;;;;;;;34.92;23.35;;;282.00;1433.60;;;;;;5091081;28;20016;-57
2021/03/16 10:23:07;;;;;;;28.10;21.55;;;282.20;1433.60;;;;;;5090870;28;20035;-57
2021/03/16 10:25:34;;;;;;;21.20;14.65;;;282.20;1433.60;;;;;;5090858;28;20564;-57
2021/03/16 10:28:11;;;;;;;35.67;23.35;;;281.80;1408.00;;;;;;5090788;28;20032;-57
2021/03/16 10:30:40;;;;;;;17.38;13.00;;;256.70;1459.20;;;;;;5091028;28;20485;-57
2021/03/16 10:33:07;;;;;;;23.13;14.70;;;256.40;1484.80;;;;;;5090713;28;20067;-57
2021/03/16 10:35:35;;;;;;;48.03;37.45;;;256.20;1459.20;;;;;;5090710;28;20036;-57
2021/03/16 10:38:03;;;;;;;19.27;14.80;;;256.30;1433.60;;;;;;5090378;28;20343;-57
2021/03/16 10:40:29;;;;;;;22.45;14.07;;;256.60;1408.00;;;;;;5090542;28;20531;-57
2021/03/16 10:42:55;;;;;;;31.73;22.05;;;256.70;1408.00;;;;;;5090525;28;20119;-57
2021/03/16 10:45:21;;;;;;;34.47;23.10;;;256.40;1459.20;;;;;;5090360;28;20096;-58
2021/03/16 10:47:47;;;;;;;21.25;15.25;;;256.20;1459.20;;;;;;5090426;28;20020;-57
2021/03/16 10:50:13;;;;;;;18.65;13.75;;;256.30;1433.60;;;;;;5090371;28;20024;-57
2021/03/16 10:52:39;;;;;;;20.77;14.52;;;256.60;1433.60;;;;;;5090791;28;20028;-57
2021/03/16 10:55:06;;;;;;;28.38;16.98;;;256.90;1433.60;;;;;;5090690;28;20377;-57
2021/03/16 10:57:32;;;;;;;31.60;19.30;;;256.90;1382.40;;;;;;5090315;28;20043;-57
2021/03/16 10:59:59;;;;;;;50.63;24.55;;;256.60;1459.20;;;;;;5090289;28;20501;-57
2021/03/16 11:02:25;;;;;;;48.00;29.83;;;256.50;1459.20;;;;;;5090388;28;20040;-57
2021/03/16 11:04:50;;;;;;;47.78;30.70;;;256.70;1433.60;;;;;;5090014;28;20038;-57
2021/03/16 11:07:17;;;;;;;29.00;17.75;;;281.70;1433.60;;;;;;5090263;28;20032;-57
2021/03/16 11:09:42;;;;;;;93.32;52.47;;;281.60;1433.60;;;;;;5090268;28;20031;-57
2021/03/16 11:12:08;;;;;;;210.45;127.65;;;281.70;1433.60;;;;;;5089889;28;20024;-57
2021/03/16 11:14:34;;;;;;;89.05;51.42;;;281.90;1433.60;;;;;;5090141;28;20051;-57
2021/03/16 11:17:00;;;;;;;35.38;19.27;;;281.70;1408.00;;;;;;5090000;28;20028;-57
2021/03/16 11:19:26;;;;;;;52.88;35.30;;;281.70;1382.40;;;;;;5090256;28;20070;-57
2021/03/16 11:21:51;;;;;;;22.92;13.65;;;281.60;1408.00;;;;;;5089826;28;20039;-57
2021/03/16 11:24:19;;;;;;;40.75;24.27;;;256.60;1408.00;;;;;;5090247;28;20476;-57
2021/03/16 11:26:45;;;;;;;19.52;13.27;;;256.30;1433.60;;;;;;5090166;28;20024;-57
2021/03/16 11:29:11;;;;;;;33.22;22.83;;;256.20;1433.60;;;;;;5090064;28;20024;-57
2021/03/16 11:31:37;;;;;;;29.38;19.45;;;256.20;1459.20;;;;;;5090115;28;20421;-57
2021/03/16 11:34:02;;;;;;;37.42;20.08;;;256.20;1484.80;;;;;;5089699;28;20052;-57
2021/03/16 11:36:28;;;;;;;24.73;14.32;;;231.30;1484.80;;;;;;5089991;28;20027;-57
2021/03/16 11:38:54;;;;;;;43.63;28.17;;;231.10;1484.80;;;;;;5090025;28;20432;-57
2021/03/16 11:41:19;;;;;;;49.40;30.85;;;231.00;1510.40;;;;;;5089814;28;20028;-57
2021/03/16 11:43:45;;;;;;;16.83;11.80;;;231.00;1536.00;;;;;;5090081;28;20028;-57
2021/03/16 11:46:11;;;;;;;26.83;18.02;;;230.90;1561.60;;;;;;5089915;28;20026;-57
2021/03/16 11:48:37;;;;;;;16.23;10.18;;;230.90;1561.60;;;;;;5089935;28;20028;-57
2021/03/16 11:51:04;;;;;;;20.38;14.10;;;230.80;1612.80;;;;;;5089698;28;20043;-57
2021/03/16 11:53:30;;;;;;;18.63;13.00;;;230.70;1612.80;;;;;;5089608;28;20032;-57
2021/03/16 11:55:58;;;;;;;13.98;9.80;;;230.70;1612.80;;;;;;5089848;28;20517;-56
2021/03/16 11:58:24;;;;;;;11.60;8.50;;;230.80;1638.40;;;;;;5089681;28;20028;-57
2021/03/16 12:00:50;;;;;;;16.48;10.27;;;230.90;1612.80;;;;;;5089392;28;20053;-57
2021/03/16 12:03:16;;;;;;;18.70;13.60;;;230.90;1587.20;;;;;;5089790;28;20126;-57
2021/03/16 12:05:42;;;;;;;27.48;17.83;;;230.90;1587.20;;;;;;5089743;28;20462;-57
2021/03/16 12:08:08;;;;;;;46.13;27.90;;;230.90;1587.20;;;;;;5089961;28;20082;-59
2021/03/16 12:10:33;;;;;;;22.08;13.63;;;230.80;1638.40;;;;;;5089870;28;20040;-58
2021/03/16 12:12:59;;;;;;;22.63;13.48;;;230.80;1638.40;;;;;;5089664;28;20024;-57